Time;durP1;ratioP1;P1;durP2;ratioP2;P2;SDS_P1;SDS_P2;PMS_P1;PMS_P2;Temp;Humidity;BMP_temperature;BMP_pressure;BME280_temperature;BME280_humidity;BME280_pressure;Samples;Min_cycle;Max_cycle;Signal;HPM_P1;HPM_P2
2024/01/18 00:01:33;;;;;;;;;;;0.90;99.90;;;;;;5014678;28;19909;-67
2024/01/18 00:03:59;;;;;;;;;;;0.90;99.90;;;;;;5025040;28;19920;-67
2024/01/18 00:06:27;;;;;;;;;;;0.90;99.90;;;;;;5023040;28;19913;-68
2024/01/18 00:08:52;;;;;;;;;;;0.90;99.90;;;;;;5037316;28;19920;-67
2024/01/18 00:11:18;;;;;;;;;;;0.90;99.90;;;;;;5044369;28;19969;-67
2024/01/18 00:13:50;;;;;;;;;;;0.90;99.90;;;;;;5025619;28;19920;-67
2024/01/18 00:16:15;;;;;;;;;;;0.80;99.90;;;;;;5019805;28;19914;-67
2024/01/18 00:18:43;;;;;;;;;;;0.90;99.90;;;;;;5019229;28;19917;-67
2024/01/18 00:21:08;;;;;;;;;;;0.90;99.90;;;;;;5036378;28;19917;-67
2024/01/18 00:23:36;;;;;;;;;;;1.00;99.90;;;;;;5030659;28;19923;-67
2024/01/18 00:26:02;;;;;;;;;;;1.00;99.90;;;;;;5030828;28;19912;-68
2024/01/18 00:28:27;;;;;;;;;;;0.90;99.90;;;;;;5039304;28;19912;-68
2024/01/18 00:30:53;;;;;;;;;;;0.90;99.90;;;;;;5041717;28;20564;-68
2024/01/18 00:33:21;;;;;;;;;;;0.90;99.90;;;;;;5045801;28;19912;-68
2024/01/18 00:35:48;;;;;;;;;;;1.00;99.90;;;;;;5032468;28;20459;-68
2024/01/18 00:38:16;;;;;;;;;;;0.90;99.90;;;;;;5032107;28;19920;-68
2024/01/18 00:40:42;;;;;;;;;;;1.00;99.90;;;;;;5034940;28;19925;-68
2024/01/18 00:43:07;;;;;;;;;;;1.00;99.90;;;;;;5020048;28;20509;-68
2024/01/18 00:45:33;;;;;;;;;;;1.00;99.90;;;;;;5043799;22;20026;-68
2024/01/18 00:47:58;;;;;;;;;;;0.90;99.90;;;;;;5024594;28;19921;-68
2024/01/18 00:50:24;;;;;;;;;;;0.90;99.90;;;;;;5025193;28;19913;-68
2024/01/18 00:52:49;;;;;;;;;;;0.90;99.90;;;;;;5028988;28;20414;-68
2024/01/18 00:55:15;;;;;;;;;;;1.00;99.90;;;;;;5025541;28;19948;-69
2024/01/18 00:57:40;;;;;;;;;;;1.00;99.90;;;;;;5025513;28;19920;-68
2024/01/18 01:00:08;;;;;;;;;;;1.00;99.90;;;;;;5023076;28;19925;-68
2024/01/18 01:02:34;;;;;;;;;;;1.00;99.90;;;;;;5025453;28;20004;-68
2024/01/18 01:05:00;;;;;;;;;;;1.00;99.90;;;;;;5026197;28;20047;-68
2024/01/18 01:07:27;;;;;;;;;;;1.00;99.90;;;;;;5025709;28;20677;-68
2024/01/18 01:09:53;;;;;;;;;;;1.10;99.90;;;;;;5024622;28;19901;-68
2024/01/18 01:12:20;;;;;;;;;;;1.00;99.90;;;;;;5026414;28;19923;-68
2024/01/18 01:14:48;;;;;;;;;;;1.10;99.90;;;;;;5025470;28;19913;-68
2024/01/18 01:17:14;;;;;;;;;;;1.00;99.90;;;;;;5025177;28;19996;-68
2024/01/18 01:19:40;;;;;;;;;;;1.00;99.90;;;;;;5024838;28;20793;-68
2024/01/18 01:22:05;;;;;;;;;;;0.90;99.90;;;;;;5028479;28;19909;-68
2024/01/18 01:24:31;;;;;;;;;;;0.90;99.90;;;;;;5025810;28;19913;-68
2024/01/18 01:26:56;;;;;;;;;;;0.90;99.90;;;;;;5022098;28;19999;-68
2024/01/18 01:29:24;;;;;;;;;;;0.90;99.90;;;;;;5018814;28;20303;-68
2024/01/18 01:31:51;;;;;;;;;;;0.90;99.90;;;;;;5023210;28;19920;-68
2024/01/18 01:34:21;;;;;;;;;;;0.90;99.90;;;;;;5023594;28;20021;-68
2024/01/18 01:36:47;;;;;;;;;;;0.90;99.90;;;;;;5023297;28;19919;-68
2024/01/18 01:39:13;;;;;;;;;;;0.80;99.90;;;;;;5023610;28;19929;-68
2024/01/18 01:41:38;;;;;;;;;;;0.90;99.90;;;;;;5018559;28;19917;-68
2024/01/18 01:44:04;;;;;;;;;;;0.80;99.90;;;;;;5020902;28;19913;-68
2024/01/18 01:46:32;;;;;;;;;;;0.80;99.90;;;;;;5020551;28;20458;-68
2024/01/18 01:49:02;;;;;;;;;;;0.80;99.90;;;;;;5021144;28;19920;-68
2024/01/18 01:51:32;;;;;;;;;;;0.80;99.90;;;;;;5014785;28;19928;-68
2024/01/18 01:53:58;;;;;;;;;;;0.80;99.90;;;;;;5025240;28;19921;-68
2024/01/18 01:56:26;;;;;;;;;;;0.80;99.90;;;;;;5023450;28;19913;-68
2024/01/18 01:58:51;;;;;;;;;;;0.80;99.90;;;;;;5018130;28;20021;-68
2024/01/18 02:01:19;;;;;;;;;;;0.80;99.90;;;;;;5034533;28;20394;-68
2024/01/18 02:03:44;;;;;;;;;;;0.80;99.90;;;;;;5021541;28;20307;-68
2024/01/18 02:06:12;;;;;;;;;;;0.80;99.90;;;;;;5031667;28;19913;-68
2024/01/18 02:08:38;;;;;;;;;;;0.80;99.90;;;;;;5025716;28;20327;-68
2024/01/18 02:11:04;;;;;;;;;;;0.90;99.90;;;;;;5025619;28;19913;-68
2024/01/18 02:13:29;;;;;;;;;;;0.80;99.90;;;;;;5027037;28;19920;-68
2024/01/18 02:15:55;;;;;;;;;;;0.80;99.90;;;;;;5019600;28;19959;-68
2024/01/18 02:18:21;;;;;;;;;;;0.80;99.90;;;;;;5022848;28;20442;-68
2024/01/18 02:20:46;;;;;;;;;;;0.80;99.90;;;;;;5023248;28;19917;-68
2024/01/18 02:23:14;;;;;;;;;;;0.80;99.90;;;;;;5023103;28;19924;-68
2024/01/18 02:25:42;;;;;;;;;;;0.80;99.90;;;;;;5023046;28;19983;-68
2024/01/18 02:28:08;;;;;;;;;;;0.80;99.90;;;;;;5024495;28;20008;-68
2024/01/18 02:30:36;;;;;;;;;;;0.80;99.90;;;;;;5026867;28;20371;-68
2024/01/18 02:33:02;;;;;;;;;;;0.80;99.90;;;;;;5032332;28;20375;-68
2024/01/18 02:35:27;;;;;;;;;;;0.80;99.90;;;;;;5028397;28;19932;-68
2024/01/18 02:37:55;;;;;;;;;;;0.80;99.90;;;;;;5027634;28;20480;-68
2024/01/18 02:40:23;;;;;;;;;;;0.80;99.90;;;;;;5026857;28;19975;-68
2024/01/18 02:42:49;;;;;;;;;;;0.80;99.90;;;;;;5025048;28;19915;-68
2024/01/18 02:45:17;;;;;;;;;;;0.80;99.90;;;;;;5028229;28;19917;-68
2024/01/18 02:47:45;;;;;;;;;;;0.80;99.90;;;;;;5027955;28;19921;-68
2024/01/18 02:50:13;;;;;;;;;;;0.80;99.90;;;;;;5023266;28;19921;-68
2024/01/18 02:52:41;;;;;;;;;;;0.80;99.90;;;;;;5027564;28;19913;-68
2024/01/18 02:55:07;;;;;;;;;;;0.80;99.90;;;;;;5028321;28;19902;-68
2024/01/18 02:57:32;;;;;;;;;;;0.80;99.90;;;;;;5025125;28;19917;-68
2024/01/18 03:00:00;;;;;;;;;;;0.80;99.90;;;;;;5027284;28;19909;-68
2024/01/18 03:02:26;;;;;;;;;;;0.80;99.90;;;;;;5027286;28;19921;-68
2024/01/18 03:04:51;;;;;;;;;;;0.80;99.90;;;;;;5042878;28;19917;-68
2024/01/18 03:07:19;;;;;;;;;;;0.80;99.90;;;;;;5027734;28;19920;-68
2024/01/18 03:09:45;;;;;;;;;;;0.80;99.90;;;;;;5028667;28;19905;-68
2024/01/18 03:12:15;;;;;;;;;;;0.70;99.90;;;;;;5026764;28;20054;-68
2024/01/18 03:14:40;;;;;;;;;;;0.80;99.90;;;;;;5022502;28;19921;-68
2024/01/18 03:17:08;;;;;;;;;;;0.70;99.90;;;;;;5026942;28;19913;-68
2024/01/18 03:19:34;;;;;;;;;;;0.70;99.90;;;;;;5027250;28;19905;-68
2024/01/18 03:22:00;;;;;;;;;;;0.70;99.90;;;;;;5025841;28;20484;-68
2024/01/18 03:24:29;;;;;;;;;;;0.70;99.90;;;;;;5027693;28;20433;-68
2024/01/18 03:26:57;;;;;;;;;;;0.70;99.90;;;;;;5025667;28;20004;-68
2024/01/18 03:29:22;;;;;;;;;;;0.70;99.90;;;;;;5022448;28;19921;-68
2024/01/18 03:31:50;;;;;;;;;;;0.70;99.90;;;;;;5026584;28;19913;-68
2024/01/18 03:34:20;;;;;;;;;;;0.70;99.90;;;;;;5029548;28;19916;-68
2024/01/18 03:36:46;;;;;;;;;;;0.70;99.90;;;;;;5025053;28;19920;-68
2024/01/18 03:39:11;;;;;;;;;;;0.70;99.90;;;;;;5027311;28;19917;-68
2024/01/18 03:41:39;;;;;;;;;;;0.70;99.90;;;;;;5027254;28;19920;-68
2024/01/18 03:44:07;;;;;;;;;;;0.70;99.90;;;;;;5030332;28;20327;-68
2024/01/18 03:46:35;;;;;;;;;;;0.70;99.90;;;;;;5026898;28;19921;-68
2024/01/18 03:49:00;;;;;;;;;;;0.70;99.90;;;;;;5027648;28;19916;-68
2024/01/18 03:51:28;;;;;;;;;;;0.70;99.90;;;;;;5023635;28;19917;-68
2024/01/18 03:53:53;;;;;;;;;;;0.70;99.90;;;;;;5027237;28;19921;-68
2024/01/18 03:56:19;;;;;;;;;;;0.70;99.90;;;;;;5026425;28;19916;-68
2024/01/18 03:58:44;;;;;;;;;;;0.70;99.90;;;;;;5023867;28;19978;-68
2024/01/18 04:01:10;;;;;;;;;;;0.70;99.90;;;;;;5026151;28;20244;-68
2024/01/18 04:03:38;;;;;;;;;;;0.70;99.90;;;;;;5041587;28;19924;-68
2024/01/18 04:06:06;;;;;;;;;;;0.70;99.90;;;;;;5027061;28;20410;-68
2024/01/18 04:08:31;;;;;;;;;;;0.80;99.90;;;;;;5026510;28;19913;-68
2024/01/18 04:10:57;;;;;;;;;;;0.70;99.90;;;;;;5031519;28;19940;-68
2024/01/18 04:13:22;;;;;;;;;;;0.80;99.90;;;;;;5028136;28;19913;-68
2024/01/18 04:15:48;;;;;;;;;;;0.70;99.90;;;;;;5026591;28;19984;-68
2024/01/18 04:18:13;;;;;;;;;;;0.80;99.90;;;;;;5024972;28;19913;-68
2024/01/18 04:20:41;;;;;;;;;;;0.80;99.90;;;;;;5026080;28;19921;-68
2024/01/18 04:23:09;;;;;;;;;;;0.80;99.90;;;;;;5027052;28;19913;-68
2024/01/18 04:25:37;;;;;;;;;;;0.70;99.90;;;;;;5016209;28;20326;-68
2024/01/18 04:28:03;;;;;;;;;;;0.70;99.90;;;;;;5023820;28;19996;-68
2024/01/18 04:30:28;;;;;;;;;;;0.80;99.90;;;;;;5025262;28;20135;-68
2024/01/18 04:32:54;;;;;;;;;;;0.80;99.90;;;;;;5042161;28;19917;-68
2024/01/18 04:35:19;;;;;;;;;;;0.80;99.90;;;;;;5026727;28;20379;-68
2024/01/18 04:37:47;;;;;;;;;;;0.80;99.90;;;;;;5026375;28;20006;-68
2024/01/18 04:40:12;;;;;;;;;;;0.80;99.90;;;;;;5025184;28;20003;-68
2024/01/18 04:42:38;;;;;;;;;;;0.80;99.90;;;;;;5028709;28;19991;-68
2024/01/18 04:45:06;;;;;;;;;;;0.80;99.90;;;;;;5040404;28;20368;-68
2024/01/18 04:47:32;;;;;;;;;;;0.70;99.90;;;;;;5026106;28;20360;-68
2024/01/18 04:49:59;;;;;;;;;;;0.70;99.90;;;;;;5023158;28;19932;-68
2024/01/18 04:52:27;;;;;;;;;;;0.80;99.90;;;;;;5020662;28;19988;-68
2024/01/18 04:54:56;;;;;;;;;;;0.70;99.90;;;;;;5026007;28;20127;-68
2024/01/18 04:57:23;;;;;;;;;;;0.70;99.90;;;;;;5022678;28;19996;-68
2024/01/18 04:59:49;;;;;;;;;;;0.70;99.90;;;;;;5040983;28;19913;-68
2024/01/18 05:02:15;;;;;;;;;;;0.70;99.90;;;;;;5025776;28;19927;-68
2024/01/18 05:04:40;;;;;;;;;;;0.70;99.90;;;;;;5025491;28;20319;-68
2024/01/18 05:07:06;;;;;;;;;;;0.70;99.90;;;;;;5026089;28;19909;-68
2024/01/18 05:09:31;;;;;;;;;;;0.70;99.90;;;;;;5045949;28;20394;-68
2024/01/18 05:11:57;;;;;;;;;;;0.70;99.90;;;;;;5024954;28;19917;-68
2024/01/18 05:14:22;;;;;;;;;;;0.70;99.90;;;;;;5027977;28;20490;-68
2024/01/18 05:16:51;;;;;;;;;;;0.70;99.90;;;;;;5025483;28;19922;-68
2024/01/18 05:19:17;;;;;;;;;;;0.60;99.90;;;;;;5025168;28;20506;-68
2024/01/18 05:21:43;;;;;;;;;;;0.60;99.90;;;;;;5026443;28;19923;-68
2024/01/18 05:24:11;;;;;;;;;;;0.60;99.90;;;;;;5026869;28;19940;-68
2024/01/18 05:26:39;;;;;;;;;;;0.70;99.90;;;;;;5025371;28;19917;-68
2024/01/18 05:29:04;;;;;;;;;;;0.60;99.90;;;;;;5024895;28;19913;-68
2024/01/18 05:31:30;;;;;;;;;;;0.60;99.90;;;;;;5026112;28;19967;-68
2024/01/18 05:33:59;;;;;;;;;;;0.60;99.90;;;;;;5025545;28;19906;-68
2024/01/18 05:36:25;;;;;;;;;;;0.60;99.90;;;;;;5026119;28;19919;-68
2024/01/18 05:38:50;;;;;;;;;;;0.60;99.90;;;;;;5020884;28;19917;-68
2024/01/18 05:41:16;;;;;;;;;;;0.60;99.90;;;;;;5023545;28;19921;-68
2024/01/18 05:43:41;;;;;;;;;;;0.60;99.90;;;;;;5029210;28;19960;-68
2024/01/18 05:46:08;;;;;;;;;;;0.60;99.90;;;;;;5028594;28;19913;-68
2024/01/18 05:48:33;;;;;;;;;;;0.60;99.90;;;;;;5029874;28;19912;-68
2024/01/18 05:50:59;;;;;;;;;;;0.60;99.90;;;;;;5029418;28;19927;-68
2024/01/18 05:53:27;;;;;;;;;;;0.50;99.90;;;;;;5029111;28;20407;-68
2024/01/18 05:55:52;;;;;;;;;;;0.40;99.90;;;;;;5019105;28;19928;-68
2024/01/18 05:58:18;;;;;;;;;;;0.50;99.90;;;;;;5026063;28;20300;-68
2024/01/18 06:00:43;;;;;;;;;;;0.50;99.90;;;;;;5021495;28;19913;-68
2024/01/18 06:03:08;;;;;;;;;;;0.50;99.90;;;;;;5028953;28;20483;-68
2024/01/18 06:05:34;;;;;;;;;;;0.40;99.90;;;;;;5023296;28;19913;-68
2024/01/18 06:07:59;;;;;;;;;;;0.40;99.90;;;;;;5024113;28;19917;-68
2024/01/18 06:10:25;;;;;;;;;;;0.40;99.90;;;;;;5023731;28;19982;-68
2024/01/18 06:12:50;;;;;;;;;;;0.40;99.90;;;;;;5021154;28;20465;-68
2024/01/18 06:15:19;;;;;;;;;;;0.30;99.90;;;;;;5020147;28;19967;-68
2024/01/18 06:17:44;;;;;;;;;;;0.30;99.90;;;;;;5024943;28;19963;-68
2024/01/18 06:20:10;;;;;;;;;;;0.30;99.90;;;;;;5020357;28;20357;-68
2024/01/18 06:22:38;;;;;;;;;;;0.30;99.90;;;;;;5020669;28;19921;-69
2024/01/18 06:25:03;;;;;;;;;;;0.20;99.90;;;;;;5022565;28;20008;-68
2024/01/18 06:27:29;;;;;;;;;;;0.20;99.90;;;;;;5024294;28;20004;-68
2024/01/18 06:29:54;;;;;;;;;;;0.20;99.90;;;;;;5020199;28;19921;-68
2024/01/18 06:32:20;;;;;;;;;;;0.20;99.90;;;;;;5018209;28;20284;-68
2024/01/18 06:34:45;;;;;;;;;;;0.20;99.90;;;;;;5019987;28;19913;-68
2024/01/18 06:37:11;;;;;;;;;;;0.20;99.90;;;;;;5021502;28;20446;-70
2024/01/18 06:39:37;;;;;;;;;;;0.20;99.90;;;;;;5016488;28;19918;-70
2024/01/18 06:42:03;;;;;;;;;;;0.20;99.90;;;;;;5023019;28;19951;-68
2024/01/18 06:44:31;;;;;;;;;;;0.10;99.90;;;;;;5022809;28;20380;-68
2024/01/18 06:46:56;;;;;;;;;;;0.10;99.90;;;;;;5065094;22;19920;-67
2024/01/18 06:49:22;;;;;;;;;;;0.10;99.90;;;;;;5054321;28;19920;-68
2024/01/18 06:51:47;;;;;;;;;;;0.10;99.90;;;;;;5056652;28;19909;-67
2024/01/18 06:54:13;;;;;;;;;;;0.10;99.90;;;;;;5080101;28;19927;-67
2024/01/18 06:56:38;;;;;;;;;;;0.00;99.90;;;;;;5075182;28;19952;-67
2024/01/18 06:59:06;;;;;;;;;;;0.00;99.90;;;;;;5071490;28;20446;-67
2024/01/18 07:01:34;;;;;;;;;;;0.00;99.90;;;;;;5090701;28;19970;-67
2024/01/18 07:04:04;;;;;;;;;;;-0.10;99.90;;;;;;5091657;28;20378;-67
2024/01/18 07:06:30;;;;;;;;;;;-0.10;99.90;;;;;;5066955;28;20485;-68
2024/01/18 07:08:57;;;;;;;;;;;-0.10;99.90;;;;;;5069334;28;19970;-68
2024/01/18 07:11:25;;;;;;;;;;;-0.10;99.90;;;;;;5066504;28;19923;-68
2024/01/18 07:13:51;;;;;;;;;;;-0.10;99.90;;;;;;5064853;28;19979;-68
2024/01/18 07:16:19;;;;;;;;;;;-0.10;99.90;;;;;;5066881;28;20379;-68
2024/01/18 07:18:46;;;;;;;;;;;-0.10;99.90;;;;;;5062321;28;20019;-68
2024/01/18 07:21:12;;;;;;;;;;;-0.20;99.90;;;;;;5065191;28;20356;-68
2024/01/18 07:23:40;;;;;;;;;;;-0.20;99.90;;;;;;5066120;28;20015;-68
2024/01/18 07:26:05;;;;;;;;;;;-0.20;99.90;;;;;;5066717;28;19913;-68
2024/01/18 07:28:30;;;;;;;;;;;-0.20;99.90;;;;;;5064418;28;20351;-69
2024/01/18 07:30:57;;;;;;;;;;;-0.20;99.90;;;;;;5065730;28;19912;-68
2024/01/18 07:33:22;;;;;;;;;;;-0.30;99.90;;;;;;5066908;28;19924;-68
2024/01/18 07:35:52;;;;;;;;;;;-0.30;99.90;;;;;;5068429;28;19912;-68
2024/01/18 07:38:18;;;;;;;;;;;-0.30;99.90;;;;;;5065019;28;19955;-68
2024/01/18 07:40:46;;;;;;;;;;;-0.30;99.90;;;;;;5062665;28;20014;-68
2024/01/18 07:43:14;;;;;;;;;;;-0.30;99.90;;;;;;5063661;28;19908;-68
2024/01/18 07:45:40;;;;;;;;;;;-0.40;99.90;;;;;;5059372;28;19921;-68
2024/01/18 07:48:05;;;;;;;;;;;-0.40;99.90;;;;;;5062183;28;19931;-68
2024/01/18 07:50:33;;;;;;;;;;;-0.40;99.90;;;;;;5057359;28;19917;-68
2024/01/18 07:52:59;;;;;;;;;;;-0.40;99.90;;;;;;5061650;28;19920;-68
2024/01/18 07:55:25;;;;;;;;;;;-0.40;99.90;;;;;;5061759;28;19920;-69
2024/01/18 07:57:51;;;;;;;;;;;-0.40;99.90;;;;;;5080201;28;19910;-68
2024/01/18 08:00:16;;;;;;;;;;;-0.40;99.90;;;;;;5062478;28;19947;-68
2024/01/18 08:02:42;;;;;;;;;;;-0.40;99.90;;;;;;5056154;28;19930;-68
2024/01/18 08:05:08;;;;;;;;;;;-0.40;99.90;;;;;;5057561;28;19960;-68
2024/01/18 08:07:33;;;;;;;;;;;-0.40;99.90;;;;;;5058693;28;19916;-68
2024/01/18 08:10:01;;;;;;;;;;;-0.40;99.90;;;;;;5063318;28;19924;-68
2024/01/18 08:12:29;;;;;;;;;;;-0.40;99.90;;;;;;5061141;28;19928;-68
2024/01/18 08:14:54;;;;;;;;;;;-0.40;99.90;;;;;;5059826;28;19913;-68
2024/01/18 08:17:22;;;;;;;;;;;-0.40;99.90;;;;;;5061996;28;19924;-68
2024/01/18 08:19:51;;;;;;;;;;;-0.30;99.90;;;;;;5058934;28;19916;-68
2024/01/18 08:22:18;;;;;;;;;;;-0.30;99.90;;;;;;5061662;28;19917;-68
2024/01/18 08:24:43;;;;;;;;;;;-0.30;99.90;;;;;;5063776;28;20061;-68
2024/01/18 08:27:11;;;;;;;;;;;-0.40;99.90;;;;;;5061491;28;19919;-68
2024/01/18 08:29:39;;;;;;;;;;;-0.40;99.90;;;;;;5062541;28;19916;-68
2024/01/18 08:32:05;;;;;;;;;;;-0.30;99.90;;;;;;5059251;28;19913;-68
2024/01/18 08:34:31;;;;;;;;;;;-0.30;99.90;;;;;;5062465;28;19915;-68
2024/01/18 08:36:56;;;;;;;;;;;-0.30;99.90;;;;;;5059593;28;20417;-68
2024/01/18 08:39:22;;;;;;;;;;;-0.40;99.90;;;;;;5078518;28;19931;-68
2024/01/18 08:41:49;;;;;;;;;;;-0.30;99.90;;;;;;5069756;28;19924;-68
2024/01/18 08:44:17;;;;;;;;;;;-0.30;99.90;;;;;;5062469;28;19927;-68
2024/01/18 08:46:43;;;;;;;;;;;-0.40;99.90;;;;;;5058993;28;20318;-68
2024/01/18 08:49:08;;;;;;;;;;;-0.30;99.90;;;;;;5059573;28;19908;-69
2024/01/18 08:51:34;;;;;;;;;;;-0.30;99.90;;;;;;5053930;28;19912;-68
2024/01/18 08:54:01;;;;;;;;;;;-0.30;99.90;;;;;;5061720;28;20773;-68
2024/01/18 08:56:27;;;;;;;;;;;-0.30;99.90;;;;;;5063085;28;20572;-68
2024/01/18 08:58:52;;;;;;;;;;;-0.20;99.90;;;;;;5057565;28;19920;-68
2024/01/18 09:01:18;;;;;;;;;;;-0.20;99.90;;;;;;5057863;28;19935;-68
2024/01/18 09:03:43;;;;;;;;;;;-0.10;99.90;;;;;;5077376;28;19915;-68
2024/01/18 09:06:09;;;;;;;;;;;0.00;99.90;;;;;;5078294;28;20428;-68
2024/01/18 09:08:39;;;;;;;;;;;0.00;99.90;;;;;;5061776;28;19920;-69
2024/01/18 09:11:04;;;;;;;;;;;0.00;99.90;;;;;;5078346;28;19920;-68
2024/01/18 09:13:30;;;;;;;;;;;0.10;99.90;;;;;;5064058;28;19919;-68
2024/01/18 09:15:55;;;;;;;;;;;0.20;99.90;;;;;;5057774;28;22775;-69
2024/01/18 09:18:21;;;;;;;;;;;0.20;99.90;;;;;;5065473;28;19912;-68
2024/01/18 09:20:48;;;;;;;;;;;0.30;99.90;;;;;;5061534;28;19923;-68
2024/01/18 09:23:14;;;;;;;;;;;0.40;99.90;;;;;;5059479;28;19921;-68
2024/01/18 09:25:45;;;;;;;;;;;0.40;99.90;;;;;;5058384;28;19920;-68
2024/01/18 09:28:15;;;;;;;;;;;0.50;99.90;;;;;;5063783;28;19912;-68
2024/01/18 09:30:41;;;;;;;;;;;0.60;99.90;;;;;;5058005;28;19916;-68
2024/01/18 09:33:06;;;;;;;;;;;0.60;99.90;;;;;;5064060;28;19920;-68
2024/01/18 09:35:34;;;;;;;;;;;0.70;99.90;;;;;;5056877;28;19913;-68
2024/01/18 09:37:59;;;;;;;;;;;0.80;99.90;;;;;;5059850;28;20323;-68
2024/01/18 09:40:28;;;;;;;;;;;0.80;99.90;;;;;;5059070;28;19912;-68
2024/01/18 09:42:57;;;;;;;;;;;0.90;99.90;;;;;;5063622;28;20023;-68
2024/01/18 09:45:24;;;;;;;;;;;0.90;99.90;;;;;;5070521;28;19917;-68
2024/01/18 09:47:52;;;;;;;;;;;1.00;99.90;;;;;;5060783;28;20010;-69
2024/01/18 09:50:19;;;;;;;;;;;1.10;99.90;;;;;;5063789;28;19917;-68
2024/01/18 09:52:48;;;;;;;;;;;1.10;99.90;;;;;;5053489;28;20085;-69
2024/01/18 09:55:16;;;;;;;;;;;1.20;99.90;;;;;;5059973;28;19908;-68
2024/01/18 09:57:47;;;;;;;;;;;1.20;99.90;;;;;;5061627;28;19913;-68
2024/01/18 10:00:16;;;;;;;;;;;1.20;99.90;;;;;;5060371;28;20363;-68
2024/01/18 10:02:42;;;;;;;;;;;1.30;99.90;;;;;;5060439;28;19912;-68
2024/01/18 10:05:11;;;;;;;;;;;1.40;99.90;;;;;;5060316;28;19924;-68
2024/01/18 10:07:39;;;;;;;;;;;1.40;99.90;;;;;;5060423;28;19931;-68
2024/01/18 10:10:08;;;;;;;;;;;1.50;99.90;;;;;;5061319;28;19912;-69
2024/01/18 10:12:36;;;;;;;;;;;1.60;99.90;;;;;;5061074;28;19924;-68
2024/01/18 10:15:02;;;;;;;;;;;1.70;99.90;;;;;;5056929;28;19912;-68
2024/01/18 10:17:32;;;;;;;;;;;1.80;99.90;;;;;;5058165;28;19927;-68
2024/01/18 10:19:58;;;;;;;;;;;1.90;99.90;;;;;;5061868;28;19916;-69
2024/01/18 10:22:26;;;;;;;;;;;2.00;99.90;;;;;;5053049;28;19913;-69
2024/01/18 10:24:51;;;;;;;;;;;2.10;99.90;;;;;;5081420;28;20347;-69
2024/01/18 10:27:21;;;;;;;;;;;2.30;99.90;;;;;;5056012;28;19939;-68
2024/01/18 10:29:51;;;;;;;;;;;2.50;99.90;;;;;;5065293;28;19916;-69
2024/01/18 10:32:17;;;;;;;;;;;2.60;99.90;;;;;;5061439;28;19913;-68
2024/01/18 10:34:46;;;;;;;;;;;2.80;99.90;;;;;;5064268;28;20333;-69
2024/01/18 10:37:17;;;;;;;;;;;2.90;99.90;;;;;;5065999;28;20240;-69
2024/01/18 10:39:46;;;;;;;;;;;3.20;99.90;;;;;;5063368;28;19916;-69
2024/01/18 10:42:12;;;;;;;;;;;3.40;99.90;;;;;;5058156;28;20356;-69
2024/01/18 10:44:41;;;;;;;;;;;3.50;99.90;;;;;;5068774;28;20022;-69
2024/01/18 10:47:09;;;;;;;;;;;3.70;99.90;;;;;;5064715;28;19923;-69
2024/01/18 10:49:35;;;;;;;;;;;3.70;99.90;;;;;;5060837;28;19920;-69
2024/01/18 10:52:01;;;;;;;;;;;3.80;99.90;;;;;;5064649;28;19908;-69
2024/01/18 10:54:27;;;;;;;;;;;4.10;99.90;;;;;;5062967;28;20005;-69
2024/01/18 10:56:55;;;;;;;;;;;4.20;99.90;;;;;;5061600;28;20708;-69
2024/01/18 10:59:20;;;;;;;;;;;4.30;99.90;;;;;;5070156;28;19916;-69
2024/01/18 11:01:47;;;;;;;;;;;4.40;99.90;;;;;;5064604;28;20489;-69
2024/01/18 11:04:13;;;;;;;;;;;4.60;99.90;;;;;;5068009;28;19916;-69
2024/01/18 11:06:40;;;;;;;;;;;4.90;99.90;;;;;;5063359;28;19913;-69
2024/01/18 11:09:05;;;;;;;;;;;5.10;99.90;;;;;;5061967;28;19955;-69
2024/01/18 11:11:33;;;;;;;;;;;5.10;99.90;;;;;;5053731;28;20354;-69
2024/01/18 11:14:01;;;;;;;;;;;5.10;99.90;;;;;;5063669;28;19920;-69
2024/01/18 11:16:27;;;;;;;;;;;5.40;99.90;;;;;;5063649;28;19912;-69
2024/01/18 11:18:56;;;;;;;;;;;5.60;99.90;;;;;;5067846;28;20492;-69
2024/01/18 11:21:36;;;;;;;;;;;5.70;99.90;;;;;;5067949;28;19920;-69
2024/01/18 11:24:05;;;;;;;;;;;5.70;99.90;;;;;;5078401;28;19987;-69
2024/01/18 11:26:31;;;;;;;;;;;5.90;99.90;;;;;;5064392;28;19915;-69
2024/01/18 11:29:15;;;;;;;;;;;6.00;99.90;;;;;;5063376;28;20394;-69
2024/01/18 11:31:47;;;;;;;;;;;6.00;99.90;;;;;;5071269;28;20003;-69
2024/01/18 11:34:36;;;;;;;;;;;6.10;99.90;;;;;;5068519;28;19923;-69
2024/01/18 11:37:27;;;;;;;;;;;6.10;99.90;;;;;;5066237;28;19954;-69
2024/01/18 11:39:53;;;;;;;;;;;6.40;99.90;;;;;;5056832;28;19969;-71
2024/01/18 11:42:30;;;;;;;;;;;6.40;99.90;;;;;;5062775;28;19917;-69
2024/01/18 11:45:07;;;;;;;;;;;6.70;99.90;;;;;;5063360;28;20473;-69
2024/01/18 11:47:37;;;;;;;;;;;7.10;99.90;;;;;;5057053;28;20392;-69
2024/01/18 11:50:05;;;;;;;;;;;7.60;99.90;;;;;;5066051;28;19931;-69
2024/01/18 11:52:34;;;;;;;;;;;7.70;99.90;;;;;;5057509;28;19912;-69
2024/01/18 11:55:02;;;;;;;;;;;8.10;99.90;;;;;;5061312;28;19955;-69
2024/01/18 11:57:28;;;;;;;;;;;8.30;99.30;;;;;;5061968;28;19948;-69
2024/01/18 11:59:56;;;;;;;;;;;8.50;99.50;;;;;;5063066;28;19942;-69
2024/01/18 12:02:22;;;;;;;;;;;8.70;98.40;;;;;;5062852;28;19946;-69
2024/01/18 12:04:50;;;;;;;;;;;8.60;98.20;;;;;;5074762;28;19919;-69
2024/01/18 12:07:17;;;;;;;;;;;8.70;98.30;;;;;;5088517;28;19911;-68
2024/01/18 12:09:42;;;;;;;;;;;8.30;96.90;;;;;;5062069;28;19907;-69
2024/01/18 12:12:09;;;;;;;;;;;8.30;98.00;;;;;;5060637;28;19916;-69
2024/01/18 12:14:38;;;;;;;;;;;8.20;97.90;;;;;;5061779;28;20423;-69
2024/01/18 12:17:04;;;;;;;;;;;7.90;97.30;;;;;;5060731;28;19920;-69
2024/01/18 12:19:33;;;;;;;;;;;7.70;97.80;;;;;;5063761;28;19923;-69
2024/01/18 12:22:05;;;;;;;;;;;7.50;98.10;;;;;;5081884;28;19920;-69
2024/01/18 12:24:32;;;;;;;;;;;7.20;97.40;;;;;;5060699;28;20355;-69
2024/01/18 12:27:00;;;;;;;;;;;6.70;98.10;;;;;;5063284;28;19920;-69
2024/01/18 12:29:26;;;;;;;;;;;6.70;98.20;;;;;;5071213;28;19916;-69
2024/01/18 12:31:51;;;;;;;;;;;6.30;98.70;;;;;;5076477;28;20434;-69
2024/01/18 12:34:18;;;;;;;;;;;6.20;98.80;;;;;;5061695;28;21367;-69
2024/01/18 12:36:43;;;;;;;;;;;6.20;99.50;;;;;;5064198;28;19904;-69
2024/01/18 12:39:10;;;;;;;;;;;6.20;99.40;;;;;;5064136;28;19943;-69
2024/01/18 12:41:36;;;;;;;;;;;6.20;99.30;;;;;;5055508;28;20370;-69
2024/01/18 12:44:05;;;;;;;;;;;5.90;99.00;;;;;;5061177;28;19919;-69
2024/01/18 12:46:30;;;;;;;;;;;5.70;99.40;;;;;;5065299;22;19995;-69
2024/01/18 12:48:56;;;;;;;;;;;5.70;99.90;;;;;;5065407;28;19909;-69
2024/01/18 12:51:24;;;;;;;;;;;5.40;99.80;;;;;;5063728;28;19913;-69
2024/01/18 12:53:49;;;;;;;;;;;5.50;99.90;;;;;;5077937;28;19912;-69
2024/01/18 12:56:19;;;;;;;;;;;5.50;99.90;;;;;;5081082;28;19916;-69
2024/01/18 12:58:45;;;;;;;;;;;5.60;99.90;;;;;;5075004;28;20053;-69
2024/01/18 13:01:23;;;;;;;;;;;5.70;99.90;;;;;;5061181;28;23449;-69
2024/01/18 13:03:51;;;;;;;;;;;5.80;99.90;;;;;;5063486;28;19913;-69
2024/01/18 13:06:19;;;;;;;;;;;6.00;99.90;;;;;;5061369;28;20003;-69
2024/01/18 13:08:44;;;;;;;;;;;6.40;99.90;;;;;;5074599;28;19991;-69
2024/01/18 13:11:10;;;;;;;;;;;6.70;99.90;;;;;;5082799;28;20010;-69
2024/01/18 13:13:35;;;;;;;;;;;6.80;99.40;;;;;;5080602;28;19966;-69
2024/01/18 13:16:03;;;;;;;;;;;7.00;99.90;;;;;;5083187;28;19980;-69
2024/01/18 13:18:29;;;;;;;;;;;7.10;99.60;;;;;;5070294;28;19935;-69
2024/01/18 13:20:57;;;;;;;;;;;7.40;99.90;;;;;;5063689;28;20358;-69
2024/01/18 13:23:23;;;;;;;;;;;7.60;99.10;;;;;;5059686;28;19919;-69
2024/01/18 13:25:50;;;;;;;;;;;7.70;98.90;;;;;;5061589;28;20290;-69
2024/01/18 13:28:18;;;;;;;;;;;7.90;98.80;;;;;;5062378;28;19956;-69
2024/01/18 13:30:44;;;;;;;;;;;8.00;98.40;;;;;;5081621;28;19908;-69
2024/01/18 13:33:09;;;;;;;;;;;8.00;97.60;;;;;;5082757;28;20322;-69
2024/01/18 13:35:35;;;;;;;;;;;8.10;98.00;;;;;;5079649;28;19920;-69
2024/01/18 13:38:03;;;;;;;;;;;8.30;97.90;;;;;;5082230;28;19912;-69
2024/01/18 13:40:28;;;;;;;;;;;8.40;97.80;;;;;;5082569;28;19915;-70
2024/01/18 13:42:54;;;;;;;;;;;8.60;97.50;;;;;;5081269;28;20355;-69
2024/01/18 13:45:19;;;;;;;;;;;8.80;97.40;;;;;;5079147;28;19916;-69
2024/01/18 13:47:47;;;;;;;;;;;9.00;97.60;;;;;;5090485;28;20010;-69
2024/01/18 13:50:15;;;;;;;;;;;8.90;96.40;;;;;;5081948;28;19920;-69
2024/01/18 13:52:41;;;;;;;;;;;9.10;96.90;;;;;;5078914;28;20003;-69
2024/01/18 13:55:07;;;;;;;;;;;9.10;96.80;;;;;;5063200;28;19916;-69
2024/01/18 13:57:33;;;;;;;;;;;9.20;96.20;;;;;;5085031;28;19916;-69
2024/01/18 13:59:58;;;;;;;;;;;9.10;96.10;;;;;;5085029;28;20367;-69
2024/01/18 14:02:26;;;;;;;;;;;9.00;96.00;;;;;;5082952;28;20294;-69
2024/01/18 14:04:52;;;;;;;;;;;8.90;95.40;;;;;;5090214;28;20473;-69
2024/01/18 14:07:17;;;;;;;;;;;8.50;95.60;;;;;;5091210;28;19939;-69
2024/01/18 14:09:43;;;;;;;;;;;8.40;96.00;;;;;;5089618;28;19908;-69
2024/01/18 14:12:08;;;;;;;;;;;8.10;95.90;;;;;;5089809;28;20366;-69
2024/01/18 14:14:34;;;;;;;;;;;7.90;96.10;;;;;;5087417;28;19943;-69
2024/01/18 14:17:02;;;;;;;;;;;7.70;96.90;;;;;;5077655;28;19920;-69
2024/01/18 14:19:30;;;;;;;;;;;7.70;96.80;;;;;;5063264;28;20090;-69
2024/01/18 14:21:57;;;;;;;;;;;7.70;97.20;;;;;;5086142;28;20014;-69
2024/01/18 14:24:25;;;;;;;;;;;7.60;97.00;;;;;;5083993;28;19924;-68
2024/01/18 14:26:51;;;;;;;;;;;7.40;97.10;;;;;;5071078;28;19965;-69